Terminal Aerodrome Forecast
Issued by NWS Billings, MT

Home | Current Version | Previous Version | Graphics & Text | Print | Product List | Glossary On
Versions: 1 2 3 4 5 6 7 8 9 10 11 12 13 14 15 16 17
000
FTUS45 KBYZ 232335
TAFMLS
TAF
KMLS 232335Z 2400/2424 13011G16KT P6SM FEW200
     FM240300 14014G21KT P6SM VCSH FEW120
     FM240500 14014G21KT P6SM SKC
     FM241200 24012KT P6SM SKC
     FM241500 30015G24KT P6SM SKC
     FM241800 33014G23KT P6SM SKC=

USA.gov is the U.S. government's official web portal to all federal, state and local government web resources and services.